sensor_id;sensor_type;location;lat;lon;timestamp;pressure;altitude;pressure_sealevel;temperature;humidity
5126;BME280;63008;53.112;8.896;2023-04-01T00:01:54;99354.47;;;10.53;100.00
5126;BME280;63008;53.112;8.896;2023-04-01T00:03:55;99350.88;;;10.49;100.00
5126;BME280;63008;53.112;8.896;2023-04-01T00:05:58;99351.72;;;10.53;100.00
5126;BME280;63008;53.112;8.896;2023-04-01T00:07:59;99347.00;;;10.53;100.00
5126;BME280;63008;53.112;8.896;2023-04-01T00:10:01;99347.00;;;10.53;100.00
5126;BME280;63008;53.112;8.896;2023-04-01T00:12:03;99348.19;;;10.52;100.00
5126;BME280;63008;53.112;8.896;2023-04-01T00:14:04;99349.72;;;10.50;100.00
5126;BME280;63008;53.112;8.896;2023-04-01T00:16:06;99343.84;;;10.51;100.00
5126;BME280;63008;53.112;8.896;2023-04-01T00:18:07;99352.41;;;10.46;100.00
5126;BME280;63008;53.112;8.896;2023-04-01T00:20:09;99346.09;;;10.46;100.00
5126;BME280;63008;53.112;8.896;2023-04-01T00:22:11;99348.13;;;10.49;100.00
5126;BME280;63008;53.112;8.896;2023-04-01T00:24:12;99340.69;;;10.49;100.00
5126;BME280;63008;53.112;8.896;2023-04-01T00:26:13;99342.28;;;10.50;100.00
5126;BME280;63008;53.112;8.896;2023-04-01T00:28:17;99346.97;;;10.50;100.00
5126;BME280;63008;53.112;8.896;2023-04-01T00:30:18;99338.78;;;10.53;100.00
5126;BME280;63008;53.112;8.896;2023-04-01T00:32:19;99350.19;;;10.55;100.00
5126;BME280;63008;53.112;8.896;2023-04-01T00:34:20;99345.56;;;10.59;100.00
5126;BME280;63008;53.112;8.896;2023-04-01T00:36:22;99343.50;;;10.53;100.00
5126;BME280;63008;53.112;8.896;2023-04-01T00:38:23;99348.13;;;10.49;100.00
5126;BME280;63008;53.112;8.896;2023-04-01T00:40:30;99344.91;;;10.43;100.00
5126;BME280;63008;53.112;8.896;2023-04-01T00:42:31;99346.50;;;10.44;100.00
5126;BME280;63008;53.112;8.896;2023-04-01T00:44:34;99340.19;;;10.44;100.00
5126;BME280;63008;53.112;8.896;2023-04-01T00:46:35;99341.34;;;10.43;100.00
5126;BME280;63008;53.112;8.896;2023-04-01T00:49:06;99337.84;;;10.42;100.00
5126;BME280;63008;53.112;8.896;2023-04-01T00:51:14;99345.00;;;10.50;100.00
5126;BME280;63008;53.112;8.896;2023-04-01T00:53:17;99345.31;;;10.45;100.00
5126;BME280;63008;53.112;8.896;2023-04-01T00:55:21;99341.44;;;10.46;100.00
5126;BME280;63008;53.112;8.896;2023-04-01T00:57:29;99336.28;;;10.45;100.00
5126;BME280;63008;53.112;8.896;2023-04-01T00:59:48;99343.81;;;10.48;100.00
5126;BME280;63008;53.112;8.896;2023-04-01T01:01:50;99341.84;;;10.48;100.00
5126;BME280;63008;53.112;8.896;2023-04-01T01:03:51;99344.66;;;10.52;100.00
5126;BME280;63008;53.112;8.896;2023-04-01T01:06:11;99339.91;;;10.49;100.00
5126;BME280;63008;53.112;8.896;2023-04-01T01:10:49;99351.91;;;10.41;100.00
5126;BME280;63008;53.112;8.896;2023-04-01T01:13:10;99346.84;;;10.43;100.00
5126;BME280;63008;53.112;8.896;2023-04-01T01:15:32;99351.13;;;10.40;100.00
5126;BME280;63008;53.112;8.896;2023-04-01T01:22:44;99342.53;;;10.42;100.00
5126;BME280;63008;53.112;8.896;2023-04-01T01:24:58;99346.50;;;10.44;100.00
5126;BME280;63008;53.112;8.896;2023-04-01T01:27:13;99346.41;;;10.41;100.00
5126;BME280;63008;53.112;8.896;2023-04-01T01:36:12;99349.22;;;10.44;100.00
5126;BME280;63008;53.112;8.896;2023-04-01T01:38:17;99347.34;;;10.48;100.00
5126;BME280;63008;53.112;8.896;2023-04-01T01:40:19;99347.75;;;10.50;100.00
5126;BME280;63008;53.112;8.896;2023-04-01T01:42:24;99352.47;;;10.50;100.00
5126;BME280;63008;53.112;8.896;2023-04-01T01:44:28;99350.00;;;10.45;100.00
5126;BME280;63008;53.112;8.896;2023-04-01T01:46:31;99348.50;;;10.47;100.00
5126;BME280;63008;53.112;8.896;2023-04-01T01:48:33;99348.19;;;10.52;100.00
5126;BME280;63008;53.112;8.896;2023-04-01T01:50:35;99349.34;;;10.51;100.00
5126;BME280;63008;53.112;8.896;2023-04-01T01:52:36;99354.72;;;10.44;100.00
5126;BME280;63008;53.112;8.896;2023-04-01T01:54:50;99345.81;;;10.51;100.00
5126;BME280;63008;53.112;8.896;2023-04-01T01:56:57;99358.31;;;10.48;100.00
5126;BME280;63008;53.112;8.896;2023-04-01T01:59:08;99352.81;;;10.48;100.00
5126;BME280;63008;53.112;8.896;2023-04-01T02:01:15;99357.94;;;10.50;100.00
5126;BME280;63008;53.112;8.896;2023-04-01T02:03:20;99357.53;;;10.48;100.00
5126;BME280;63008;53.112;8.896;2023-04-01T02:05:24;99353.97;;;10.47;100.00
5126;BME280;63008;53.112;8.896;2023-04-01T02:07:30;99357.22;;;10.53;100.00
5126;BME280;63008;53.112;8.896;2023-04-01T02:09:34;99361.03;;;10.48;100.00
5126;BME280;63008;53.112;8.896;2023-04-01T02:11:57;99356.28;;;10.45;100.00
5126;BME280;63008;53.112;8.896;2023-04-01T02:15:07;99356.41;;;10.52;100.00
5126;BME280;63008;53.112;8.896;2023-04-01T02:16:41;99358.72;;;10.50;100.00
5126;BME280;63008;53.112;8.896;2023-04-01T02:18:45;99357.94;;;10.50;100.00
5126;BME280;63008;53.112;8.896;2023-04-01T02:20:49;99361.03;;;10.48;100.00
5126;BME280;63008;53.112;8.896;2023-04-01T02:22:53;99365.78;;;10.51;100.00
5126;BME280;63008;53.112;8.896;2023-04-01T02:25:06;99364.28;;;10.54;100.00
5126;BME280;63008;53.112;8.896;2023-04-01T02:27:09;99365.84;;;10.55;100.00
5126;BME280;63008;53.112;8.896;2023-04-01T02:29:11;99360.31;;;10.51;100.00
5126;BME280;63008;53.112;8.896;2023-04-01T02:31:13;99363.47;;;10.53;100.00
5126;BME280;63008;53.112;8.896;2023-04-01T02:33:15;99362.69;;;10.53;100.00
5126;BME280;63008;53.112;8.896;2023-04-01T02:35:16;99358.72;;;10.50;100.00
5126;BME280;63008;53.112;8.896;2023-04-01T02:37:18;99362.63;;;10.49;100.00
5126;BME280;63008;53.112;8.896;2023-04-01T02:39:19;99365.00;;;10.51;100.00
5126;BME280;63008;53.112;8.896;2023-04-01T02:41:20;99372.00;;;10.48;100.00
5126;BME280;63008;53.112;8.896;2023-04-01T02:43:21;99362.94;;;10.44;100.00
5126;BME280;63008;53.112;8.896;2023-04-01T02:45:24;99371.94;;;10.45;100.00
5126;BME280;63008;53.112;8.896;2023-04-01T02:47:27;99370.78;;;10.46;100.00
5126;BME280;63008;53.112;8.896;2023-04-01T02:49:28;99370.50;;;10.51;100.00
5126;BME280;63008;53.112;8.896;2023-04-01T02:51:29;99371.91;;;10.41;100.00
5126;BME280;63008;53.112;8.896;2023-04-01T02:53:30;99376.59;;;10.41;100.00
5126;BME280;63008;53.112;8.896;2023-04-01T02:55:33;99375.81;;;10.40;100.00
5126;BME280;63008;53.112;8.896;2023-04-01T02:57:34;99384.75;;;10.37;100.00
5126;BME280;63008;53.112;8.896;2023-04-01T02:59:35;99376.16;;;10.39;100.00
5126;BME280;63008;53.112;8.896;2023-04-01T03:01:36;99378.91;;;10.39;100.00
5126;BME280;63008;53.112;8.896;2023-04-01T03:03:37;99378.09;;;10.38;100.00
5126;BME280;63008;53.112;8.896;2023-04-01T03:05:38;99382.81;;;10.38;100.00
5126;BME280;63008;53.112;8.896;2023-04-01T03:07:39;99378.84;;;10.35;100.00
5126;BME280;63008;53.112;8.896;2023-04-01T03:09:40;99382.72;;;10.34;100.00
5126;BME280;63008;53.112;8.896;2023-04-01T03:11:41;99389.44;;;10.37;100.00
5126;BME280;63008;53.112;8.896;2023-04-01T03:13:42;99386.78;;;10.40;100.00
5126;BME280;63008;53.112;8.896;2023-04-01T03:15:43;99395.00;;;10.40;100.00
5126;BME280;63008;53.112;8.896;2023-04-01T03:17:44;99388.72;;;10.40;100.00
5126;BME280;63008;53.112;8.896;2023-04-01T03:19:45;99386.72;;;10.37;100.00
5126;BME280;63008;53.112;8.896;2023-04-01T03:21:46;99391.34;;;10.33;100.00
5126;BME280;63008;53.112;8.896;2023-04-01T03:23:47;99388.28;;;10.38;100.00
5126;BME280;63008;53.112;8.896;2023-04-01T03:25:48;99389.53;;;10.40;100.00
5126;BME280;63008;53.112;8.896;2023-04-01T03:27:49;99387.56;;;10.41;100.00
5126;BME280;63008;53.112;8.896;2023-04-01T03:29:50;99390.72;;;10.43;100.00
5126;BME280;63008;53.112;8.896;2023-04-01T03:31:51;99393.09;;;10.44;100.00
5126;BME280;63008;53.112;8.896;2023-04-01T03:33:52;99393.88;;;10.45;100.00
5126;BME280;63008;53.112;8.896;2023-04-01T03:35:53;99394.09;;;10.33;100.00
5126;BME280;63008;53.112;8.896;2023-04-01T03:37:55;99393.66;;;10.31;100.00
5126;BME280;63008;53.112;8.896;2023-04-01T03:39:56;99395.59;;;10.30;100.00
5126;BME280;63008;53.112;8.896;2023-04-01T03:41:57;99393.66;;;10.31;100.00
5126;BME280;63008;53.112;8.896;2023-04-01T03:43:58;99401.81;;;10.27;100.00
5126;BME280;63008;53.112;8.896;2023-04-01T03:45:59;99395.16;;;10.28;100.00
5126;BME280;63008;53.112;8.896;2023-04-01T03:48:00;99403.41;;;10.28;100.00
5126;BME280;63008;53.112;8.896;2023-04-01T03:50:01;99404.56;;;10.27;100.00
5126;BME280;63008;53.112;8.896;2023-04-01T03:52:10;99404.63;;;10.31;100.00
5126;BME280;63008;53.112;8.896;2023-04-01T03:54:11;99408.50;;;10.30;100.00
5126;BME280;63008;53.112;8.896;2023-04-01T03:56:12;99412.34;;;10.25;100.00
5126;BME280;63008;53.112;8.896;2023-04-01T03:58:13;99407.59;;;10.22;100.00
5126;BME280;63008;53.112;8.896;2023-04-01T04:00:14;99410.19;;;10.15;100.00
5126;BME280;63008;53.112;8.896;2023-04-01T04:02:16;99403.94;;;10.15;100.00
5126;BME280;63008;53.112;8.896;2023-04-01T04:04:17;99408.31;;;10.19;100.00
5126;BME280;63008;53.112;8.896;2023-04-01T04:06:18;99418.41;;;10.15;100.00
5126;BME280;63008;53.112;8.896;2023-04-01T04:08:19;99413.09;;;10.22;100.00
5126;BME280;63008;53.112;8.896;2023-04-01T04:10:22;99415.84;;;10.22;100.00
5126;BME280;63008;53.112;8.896;2023-04-01T04:12:23;99413.50;;;10.24;100.00
5126;BME280;63008;53.112;8.896;2023-04-01T04:14:25;99423.91;;;10.15;100.00
5126;BME280;63008;53.112;8.896;2023-04-01T04:16:26;99420.44;;;10.18;100.00
5126;BME280;63008;53.112;8.896;2023-04-01T04:18:26;99418.06;;;10.17;100.00
5126;BME280;63008;53.112;8.896;2023-04-01T04:20:27;99424.41;;;10.21;100.00
5126;BME280;63008;53.112;8.896;2023-04-01T04:22:28;99419.00;;;10.24;100.00
5126;BME280;63008;53.112;8.896;2023-04-01T04:24:29;99423.25;;;10.22;100.00
5126;BME280;63008;53.112;8.896;2023-04-01T04:26:30;99429.53;;;10.22;100.00
5126;BME280;63008;53.112;8.896;2023-04-01T04:28:32;99426.72;;;10.19;100.00
5126;BME280;63008;53.112;8.896;2023-04-01T04:30:33;99432.94;;;10.16;100.00
5126;BME280;63008;53.112;8.896;2023-04-01T04:32:35;99430.13;;;10.12;100.00
5126;BME280;63008;53.112;8.896;2023-04-01T04:34:36;99437.53;;;10.12;100.00
5126;BME280;63008;53.112;8.896;2023-04-01T04:36:37;99433.28;;;10.14;100.00
5126;BME280;63008;53.112;8.896;2023-04-01T04:38:38;99434.88;;;10.15;100.00
5126;BME280;63008;53.112;8.896;2023-04-01T04:40:40;99436.75;;;10.11;100.00
5126;BME280;63008;53.112;8.896;2023-04-01T04:42:41;99438.66;;;10.07;100.00
5126;BME280;63008;53.112;8.896;2023-04-01T04:44:42;99443.00;;;10.12;100.00
5126;BME280;63008;53.112;8.896;2023-04-01T04:46:43;99446.66;;;10.16;100.00
5126;BME280;63008;53.112;8.896;2023-04-01T04:48:44;99439.94;;;10.13;100.00
5126;BME280;63008;53.112;8.896;2023-04-01T04:50:49;99444.25;;;10.14;100.00
5126;BME280;63008;53.112;8.896;2023-04-01T04:52:51;99446.22;;;10.14;100.00
5126;BME280;63008;53.112;8.896;2023-04-01T04:54:52;99445.06;;;10.15;100.00
5126;BME280;63008;53.112;8.896;2023-04-01T04:56:56;99446.34;;;10.02;100.00
5126;BME280;63008;53.112;8.896;2023-04-01T04:58:58;99451.19;;;10.08;100.00
5126;BME280;63008;53.112;8.896;2023-04-01T05:01:05;99457.50;;;9.93;100.00
5126;BME280;63008;53.112;8.896;2023-04-01T05:03:07;99451.91;;;10.05;100.00
5126;BME280;63008;53.112;8.896;2023-04-01T05:05:08;99453.44;;;10.03;100.00
5126;BME280;63008;53.112;8.896;2023-04-01T05:07:10;99462.69;;;9.98;100.00
5126;BME280;63008;53.112;8.896;2023-04-01T05:09:11;99461.91;;;9.98;100.00
5126;BME280;63008;53.112;8.896;2023-04-01T05:11:15;99469.72;;;9.96;100.00
5126;BME280;63008;53.112;8.896;2023-04-01T05:13:16;99466.25;;;9.99;100.00
5126;BME280;63008;53.112;8.896;2023-04-01T05:15:17;99464.22;;;9.96;100.00
5126;BME280;63008;53.112;8.896;2023-04-01T05:17:18;99464.91;;;9.93;100.00
5126;BME280;63008;53.112;8.896;2023-04-01T05:19:20;99462.34;;;10.00;100.00
5126;BME280;63008;53.112;8.896;2023-04-01T05:21:21;99468.59;;;10.00;100.00
5126;BME280;63008;53.112;8.896;2023-04-01T05:23:22;99471.28;;;9.97;100.00
5126;BME280;63008;53.112;8.896;2023-04-01T05:25:23;99472.78;;;9.94;100.00
5126;BME280;63008;53.112;8.896;2023-04-01T05:27:27;99471.63;;;9.95;100.00
5126;BME280;63008;53.112;8.896;2023-04-01T05:29:28;99474.38;;;9.95;100.00
5126;BME280;63008;53.112;8.896;2023-04-01T05:31:29;99477.94;;;9.96;100.00
5126;BME280;63008;53.112;8.896;2023-04-01T05:33:30;99469.97;;;9.91;100.00
5126;BME280;63008;53.112;8.896;2023-04-01T05:35:31;99473.94;;;9.93;100.00
5126;BME280;63008;53.112;8.896;2023-04-01T05:37:36;99485.34;;;9.95;100.00
5126;BME280;63008;53.112;8.896;2023-04-01T05:39:38;99481.25;;;10.05;100.00
5126;BME280;63008;53.112;8.896;2023-04-01T05:41:39;99483.75;;;9.94;100.00
5126;BME280;63008;53.112;8.896;2023-04-01T05:43:41;99490.09;;;9.98;100.00
5126;BME280;63008;53.112;8.896;2023-04-01T05:45:42;99495.47;;;10.10;100.00
5126;BME280;63008;53.112;8.896;2023-04-01T05:47:43;99489.56;;;10.08;100.00
5126;BME280;63008;53.112;8.896;2023-04-01T05:49:44;99489.13;;;10.06;100.00
5126;BME280;63008;53.112;8.896;2023-04-01T05:51:45;99488.25;;;10.02;100.00
5126;BME280;63008;53.112;8.896;2023-04-01T05:53:46;99496.53;;;10.06;100.00
5126;BME280;63008;53.112;8.896;2023-04-01T05:55:47;99500.88;;;10.07;100.00
5126;BME280;63008;53.112;8.896;2023-04-01T05:57:48;99497.84;;;10.12;100.00
5126;BME280;63008;53.112;8.896;2023-04-01T05:59:50;99502.13;;;10.09;100.00
5126;BME280;63008;53.112;8.896;2023-04-01T06:01:51;99505.63;;;10.10;100.00
5126;BME280;63008;53.112;8.896;2023-04-01T06:03:52;99508.38;;;10.10;100.00
5126;BME280;63008;53.112;8.896;2023-04-01T06:05:53;99504.56;;;10.14;100.00
5126;BME280;63008;53.112;8.896;2023-04-01T06:08:06;99508.56;;;10.20;100.00
5126;BME280;63008;53.112;8.896;2023-04-01T06:10:20;99513.63;;;10.18;100.00
5126;BME280;63008;53.112;8.896;2023-04-01T06:12:40;99509.38;;;10.21;100.00
5126;BME280;63008;53.112;8.896;2023-04-01T06:15:01;99512.69;;;10.30;100.00
5126;BME280;63008;53.112;8.896;2023-04-01T06:19:57;99517.03;;;10.31;100.00
5126;BME280;63008;53.112;8.896;2023-04-01T06:22:31;99517.31;;;10.26;100.00
5126;BME280;63008;53.112;8.896;2023-04-01T06:36:21;99532.34;;;10.32;100.00
5126;BME280;63008;53.112;8.896;2023-04-01T06:41:03;99537.88;;;10.35;100.00
5126;BME280;63008;53.112;8.896;2023-04-01T06:43:16;99536.16;;;10.27;100.00
5126;BME280;63008;53.112;8.896;2023-04-01T06:52:29;99553.69;;;10.42;100.00
5126;BME280;63008;53.112;8.896;2023-04-01T06:54:37;99553.47;;;10.31;100.00
5126;BME280;63008;53.112;8.896;2023-04-01T06:56:41;99550.38;;;10.33;100.00
5126;BME280;63008;53.112;8.896;2023-04-01T06:58:50;99556.34;;;10.38;100.00
5126;BME280;63008;53.112;8.896;2023-04-01T07:00:56;99551.66;;;10.39;100.00
5126;BME280;63008;53.112;8.896;2023-04-01T07:03:26;99557.72;;;10.48;100.00
5126;BME280;63008;53.112;8.896;2023-04-01T07:05:31;99559.75;;;10.51;100.00
5126;BME280;63008;53.112;8.896;2023-04-01T07:07:48;99565.34;;;10.58;100.00
5126;BME280;63008;53.112;8.896;2023-04-01T07:09:52;99571.03;;;10.68;100.00
5126;BME280;63008;53.112;8.896;2023-04-01T07:12:02;99568.22;;;10.65;100.00
5126;BME280;63008;53.112;8.896;2023-04-01T07:16:32;99569.34;;;10.60;100.00
5126;BME280;63008;53.112;8.896;2023-04-01T07:18:41;99577.84;;;10.55;100.00
5126;BME280;63008;53.112;8.896;2023-04-01T07:20:45;99571.91;;;10.53;100.00
5126;BME280;63008;53.112;8.896;2023-04-01T07:22:49;99584.63;;;10.61;100.00
5126;BME280;63008;53.112;8.896;2023-04-01T07:24:52;99587.50;;;10.68;100.00
5126;BME280;63008;53.112;8.896;2023-04-01T07:26:56;99592.44;;;10.59;100.00
5126;BME280;63008;53.112;8.896;2023-04-01T07:28:57;99587.50;;;10.68;100.00
5126;BME280;63008;53.112;8.896;2023-04-01T07:31:18;99586.44;;;10.73;100.00
5126;BME280;63008;53.112;8.896;2023-04-01T07:33:44;99597.63;;;10.45;100.00
5126;BME280;63008;53.112;8.896;2023-04-01T07:35:56;99603.19;;;10.49;100.00
5126;BME280;63008;53.112;8.896;2023-04-01T07:40:42;99602.75;;;10.47;100.00
5126;BME280;63008;53.112;8.896;2023-04-01T07:43:08;99615.88;;;10.38;100.00
5126;BME280;63008;53.112;8.896;2023-04-01T07:45:38;99618.28;;;10.39;100.00
5126;BME280;63008;53.112;8.896;2023-04-01T07:52:35;99629.69;;;10.60;100.00
5126;BME280;63008;53.112;8.896;2023-04-01T07:57:21;99633.28;;;10.64;100.00
5126;BME280;63008;53.112;8.896;2023-04-01T07:59:39;99637.91;;;10.79;100.00
5126;BME280;63008;53.112;8.896;2023-04-01T08:02:06;99632.34;;;10.76;100.00
5126;BME280;63008;53.112;8.896;2023-04-01T08:06:47;99631.66;;;11.01;100.00
5126;BME280;63008;53.112;8.896;2023-04-01T08:11:28;99646.88;;;11.17;100.00
5126;BME280;63008;53.112;8.896;2023-04-01T08:16:33;99642.09;;;10.92;100.00
5126;BME280;63008;53.112;8.896;2023-04-01T08:21:10;99655.72;;;10.88;100.00
5126;BME280;63008;53.112;8.896;2023-04-01T08:23:19;99659.63;;;11.06;100.00
5126;BME280;63008;53.112;8.896;2023-04-01T08:25:25;99659.69;;;11.10;100.00
5126;BME280;63008;53.112;8.896;2023-04-01T08:27:41;99661.75;;;11.16;100.00
5126;BME280;63008;53.112;8.896;2023-04-01T08:29:50;99661.97;;;11.08;100.00
5126;BME280;63008;53.112;8.896;2023-04-01T08:32:00;99670.81;;;10.98;100.00
5126;BME280;63008;53.112;8.896;2023-04-01T08:34:08;99673.28;;;11.03;100.00
5126;BME280;63008;53.112;8.896;2023-04-01T08:36:20;99677.59;;;11.04;100.00
5126;BME280;63008;53.112;8.896;2023-04-01T08:40:55;99688.44;;;10.97;100.00
5126;BME280;63008;53.112;8.896;2023-04-01T08:43:09;99681.06;;;11.01;100.00
5126;BME280;63008;53.112;8.896;2023-04-01T08:47:45;99691.84;;;10.90;100.00
5126;BME280;63008;53.112;8.896;2023-04-01T08:56:56;99697.09;;;11.18;100.00
5126;BME280;63008;53.112;8.896;2023-04-01T09:01:50;99705.13;;;11.07;100.00
5126;BME280;63008;53.112;8.896;2023-04-01T09:04:48;99708.16;;;11.21;100.00
5126;BME280;63008;53.112;8.896;2023-04-01T09:14:17;99711.59;;;11.37;100.00
5126;BME280;63008;53.112;8.896;2023-04-01T09:19:14;99710.78;;;11.56;100.00
5126;BME280;63008;53.112;8.896;2023-04-01T09:23:43;99718.94;;;11.71;100.00
5126;BME280;63008;53.112;8.896;2023-04-01T09:28:10;99721.84;;;11.82;100.00
5126;BME280;63008;53.112;8.896;2023-04-01T09:30:32;99736.03;;;11.84;100.00
5126;BME280;63008;53.112;8.896;2023-04-01T09:35:23;99740.56;;;11.54;100.00
5126;BME280;63008;53.112;8.896;2023-04-01T09:37:35;99735.34;;;11.49;100.00
5126;BME280;63008;53.112;8.896;2023-04-01T09:39:59;99753.06;;;11.51;100.00
5126;BME280;63008;53.112;8.896;2023-04-01T09:42:41;99747.50;;;11.48;100.00
5126;BME280;63008;53.112;8.896;2023-04-01T09:44:56;99759.28;;;11.48;100.00
5126;BME280;63008;53.112;8.896;2023-04-01T09:47:39;99756.84;;;11.43;100.00
5126;BME280;63008;53.112;8.896;2023-04-01T09:56:27;99770.28;;;11.48;100.00
5126;BME280;63008;53.112;8.896;2023-04-01T10:03:50;99787.56;;;10.92;100.00
5126;BME280;63008;53.112;8.896;2023-04-01T10:08:44;99798.38;;;10.35;100.00
5126;BME280;63008;53.112;8.896;2023-04-01T10:11:16;99810.41;;;10.15;100.00
5126;BME280;63008;53.112;8.896;2023-04-01T10:20:48;99823.22;;;9.68;100.00
5126;BME280;63008;53.112;8.896;2023-04-01T10:38:59;99845.66;;;9.31;100.00
5126;BME280;63008;53.112;8.896;2023-04-01T10:43:39;99843.03;;;9.34;100.00
5126;BME280;63008;53.112;8.896;2023-04-01T10:45:58;99854.56;;;9.28;100.00
5126;BME280;63008;53.112;8.896;2023-04-01T10:48:14;99863.00;;;9.23;100.00
5126;BME280;63008;53.112;8.896;2023-04-01T10:55:28;99863.97;;;9.15;100.00
5126;BME280;63008;53.112;8.896;2023-04-01T11:04:52;99877.31;;;9.04;100.00
5126;BME280;63008;53.112;8.896;2023-04-01T11:19:18;99896.56;;;9.20;100.00
5126;BME280;63008;53.112;8.896;2023-04-01T11:21:50;99903.22;;;9.07;100.00
5126;BME280;63008;53.112;8.896;2023-04-01T11:26:45;99911.50;;;9.10;100.00
5126;BME280;63008;53.112;8.896;2023-04-01T11:31:50;99924.06;;;9.11;100.00
5126;BME280;63008;53.112;8.896;2023-04-01T11:34:30;99917.56;;;9.16;100.00
5126;BME280;63008;53.112;8.896;2023-04-01T11:36:38;99933.66;;;9.05;100.00
5126;BME280;63008;53.112;8.896;2023-04-01T11:43:20;99935.69;;;8.97;100.00
5126;BME280;63008;53.112;8.896;2023-04-01T11:45:36;99939.56;;;8.96;100.00
5126;BME280;63008;53.112;8.896;2023-04-01T11:50:13;99948.56;;;8.84;100.00
5126;BME280;63008;53.112;8.896;2023-04-01T11:52:50;99950.53;;;8.84;100.00
5126;BME280;63008;53.112;8.896;2023-04-01T11:55:06;99954.41;;;8.83;100.00
5126;BME280;63008;53.112;8.896;2023-04-01T11:57:20;99958.97;;;8.91;99.76
5126;BME280;63008;53.112;8.896;2023-04-01T11:59:59;99967.28;;;8.94;100.00
5126;BME280;63008;53.112;8.896;2023-04-01T12:02:20;99975.72;;;9.01;100.00
5126;BME280;63008;53.112;8.896;2023-04-01T12:07:08;99978.91;;;9.03;99.69
5126;BME280;63008;53.112;8.896;2023-04-01T12:09:33;99988.94;;;8.99;98.86
5126;BME280;63008;53.112;8.896;2023-04-01T12:14:33;99993.84;;;8.94;99.32
5126;BME280;63008;53.112;8.896;2023-04-01T12:16:21;99990.28;;;8.81;98.56
5126;BME280;63008;53.112;8.896;2023-04-01T12:20:49;99998.28;;;8.86;99.01
5126;BME280;63008;53.112;8.896;2023-04-01T12:23:16;100006.59;;;8.78;98.60
5126;BME280;63008;53.112;8.896;2023-04-01T12:27:58;100019.25;;;8.82;98.84
5126;BME280;63008;53.112;8.896;2023-04-01T12:33:13;100028.50;;;9.02;99.04
5126;BME280;63008;53.112;8.896;2023-04-01T12:35:25;100024.84;;;8.98;98.22
5126;BME280;63008;53.112;8.896;2023-04-01T12:45:00;100037.53;;;9.14;96.93
5126;BME280;63008;53.112;8.896;2023-04-01T12:49:55;100045.75;;;9.14;97.41
5126;BME280;63008;53.112;8.896;2023-04-01T12:52:00;100059.06;;;9.27;97.73
5126;BME280;63008;53.112;8.896;2023-04-01T12:54:26;100058.94;;;9.24;98.17
5126;BME280;63008;53.112;8.896;2023-04-01T12:59:30;100071.16;;;9.26;97.43
5126;BME280;63008;53.112;8.896;2023-04-01T13:06:24;100080.06;;;9.11;96.44
5126;BME280;63008;53.112;8.896;2023-04-01T13:08:54;100077.06;;;8.93;95.33
5126;BME280;63008;53.112;8.896;2023-04-01T13:11:13;100081.16;;;8.87;96.02
5126;BME280;63008;53.112;8.896;2023-04-01T13:16:12;100093.94;;;8.95;96.57
5126;BME280;63008;53.112;8.896;2023-04-01T13:18:37;100100.91;;;8.92;96.08
5126;BME280;63008;53.112;8.896;2023-04-01T13:20:47;100099.53;;;8.98;96.38
5126;BME280;63008;53.112;8.896;2023-04-01T13:25:39;100110.25;;;8.91;96.97
5126;BME280;63008;53.112;8.896;2023-04-01T13:27:46;100106.56;;;8.87;97.78
5126;BME280;63008;53.112;8.896;2023-04-01T13:34:44;100122.59;;;8.65;97.38
5126;BME280;63008;53.112;8.896;2023-04-01T13:39:49;100136.63;;;8.75;97.49
5126;BME280;63008;53.112;8.896;2023-04-01T13:42:20;100133.31;;;8.70;98.30
5126;BME280;63008;53.112;8.896;2023-04-01T13:44:31;100144.50;;;8.77;98.86
5126;BME280;63008;53.112;8.896;2023-04-01T13:52:14;100158.59;;;8.46;96.94
5126;BME280;63008;53.112;8.896;2023-04-01T13:59:51;100168.94;;;8.41;97.38
5126;BME280;63008;53.112;8.896;2023-04-01T14:04:47;100174.75;;;8.39;97.35
5126;BME280;63008;53.112;8.896;2023-04-01T14:07:01;100179.19;;;8.44;98.04
5126;BME280;63008;53.112;8.896;2023-04-01T14:09:25;100178.81;;;8.54;97.91
5126;BME280;63008;53.112;8.896;2023-04-01T14:11:39;100191.88;;;8.48;97.48
5126;BME280;63008;53.112;8.896;2023-04-01T14:14:14;100187.75;;;8.42;97.18
5126;BME280;63008;53.112;8.896;2023-04-01T14:19:21;100194.94;;;8.26;97.87
5126;BME280;63008;53.112;8.896;2023-04-01T14:30:59;100232.59;;;8.12;97.49
5126;BME280;63008;53.112;8.896;2023-04-01T14:33:26;100227.13;;;8.12;97.87
5126;BME280;63008;53.112;8.896;2023-04-01T14:35:41;100237.59;;;8.10;98.02
5126;BME280;63008;53.112;8.896;2023-04-01T14:40:20;100244.56;;;7.99;97.85
5126;BME280;63008;53.112;8.896;2023-04-01T14:42:32;100250.69;;;7.96;97.80
5126;BME280;63008;53.112;8.896;2023-04-01T14:49:52;100259.44;;;7.81;97.84
5126;BME280;63008;53.112;8.896;2023-04-01T14:51:54;100270.50;;;7.85;98.06
5126;BME280;63008;53.112;8.896;2023-04-01T14:56:43;100274.22;;;7.80;97.41
5126;BME280;63008;53.112;8.896;2023-04-01T14:58:57;100255.94;;;7.72;97.05
5126;BME280;63008;53.112;8.896;2023-04-01T15:03:19;100278.72;;;7.76;96.74
5126;BME280;63008;53.112;8.896;2023-04-01T15:08:00;100285.97;;;7.72;97.02
5126;BME280;63008;53.112;8.896;2023-04-01T15:10:22;100290.63;;;7.72;96.68
5126;BME280;63008;53.112;8.896;2023-04-01T15:15:25;100302.56;;;7.67;97.31
5126;BME280;63008;53.112;8.896;2023-04-01T15:24:47;100322.00;;;7.49;96.13
5126;BME280;63008;53.112;8.896;2023-04-01T15:27:02;100327.47;;;7.49;96.10
5126;BME280;63008;53.112;8.896;2023-04-01T15:29:30;100334.22;;;7.51;95.71
5126;BME280;63008;53.112;8.896;2023-04-01T15:31:59;100345.78;;;7.48;95.70
5126;BME280;63008;53.112;8.896;2023-04-01T15:34:26;100348.00;;;7.46;96.28
5126;BME280;63008;53.112;8.896;2023-04-01T15:36:44;100346.56;;;7.49;96.59
5126;BME280;63008;53.112;8.896;2023-04-01T15:39:54;100347.69;;;7.48;96.17
5126;BME280;63008;53.112;8.896;2023-04-01T15:41:27;100352.22;;;7.44;96.19
5126;BME280;63008;53.112;8.896;2023-04-01T15:43:40;100357.31;;;7.45;95.69
5126;BME280;63008;53.112;8.896;2023-04-01T15:48:17;100369.84;;;7.38;95.86
5126;BME280;63008;53.112;8.896;2023-04-01T16:00:54;100393.63;;;7.20;95.59
5126;BME280;63008;53.112;8.896;2023-04-01T16:03:14;100397.00;;;7.18;95.53